sensor_id;sensor_type;location;lat;lon;timestamp;pressure;altitude;pressure_sealevel;temperature;humidity
77360;BME280;66426;51.454;7.266;2023-04-15T00:00:01;99338.06;;;7.27;68.41
77360;BME280;66426;51.454;7.266;2023-04-15T00:01:02;99335.22;;;7.30;68.26
77360;BME280;66426;51.454;7.266;2023-04-15T00:02:13;99326.00;;;7.35;67.63
77360;BME280;66426;51.454;7.266;2023-04-15T00:03:15;99324.97;;;7.38;67.68
77360;BME280;66426;51.454;7.266;2023-04-15T00:04:16;99325.16;;;7.35;67.82
77360;BME280;66426;51.454;7.266;2023-04-15T00:05:16;99325.16;;;7.35;68.29
77360;BME280;66426;51.454;7.266;2023-04-15T00:06:19;99320.81;;;7.50;67.51
77360;BME280;66426;51.454;7.266;2023-04-15T00:07:20;99316.25;;;7.34;67.68
77360;BME280;66426;51.454;7.266;2023-04-15T00:08:21;99330.31;;;7.21;68.24
77360;BME280;66426;51.454;7.266;2023-04-15T00:09:21;99323.16;;;7.21;68.91
77360;BME280;66426;51.454;7.266;2023-04-15T00:10:22;99322.22;;;7.22;68.77
77360;BME280;66426;51.454;7.266;2023-04-15T00:11:23;99315.69;;;7.28;68.87
77360;BME280;66426;51.454;7.266;2023-04-15T00:12:24;99320.19;;;7.27;68.72
77360;BME280;66426;51.454;7.266;2023-04-15T00:13:26;99328.06;;;7.30;68.56
77360;BME280;66426;51.454;7.266;2023-04-15T00:14:27;99320.25;;;7.43;68.69
77360;BME280;66426;51.454;7.266;2023-04-15T00:15:28;99317.97;;;7.35;68.90
77360;BME280;66426;51.454;7.266;2023-04-15T00:16:29;99317.72;;;7.23;69.22
77360;BME280;66426;51.454;7.266;2023-04-15T00:17:30;99327.41;;;7.25;69.12
77360;BME280;66426;51.454;7.266;2023-04-15T00:18:31;99328.22;;;7.27;69.41
77360;BME280;66426;51.454;7.266;2023-04-15T00:19:32;99324.19;;;7.36;68.59
77360;BME280;66426;51.454;7.266;2023-04-15T00:20:34;99322.00;;;7.44;68.36
77360;BME280;66426;51.454;7.266;2023-04-15T00:21:36;99327.66;;;7.38;68.71
77360;BME280;66426;51.454;7.266;2023-04-15T00:22:37;99321.28;;;7.41;68.79
77360;BME280;66426;51.454;7.266;2023-04-15T00:23:38;99322.47;;;7.35;68.48
77360;BME280;66426;51.454;7.266;2023-04-15T00:24:38;99330.44;;;7.37;68.21
77360;BME280;66426;51.454;7.266;2023-04-15T00:25:40;99333.22;;;7.16;69.02
77360;BME280;66426;51.454;7.266;2023-04-15T00:26:41;99329.00;;;7.12;69.09
77360;BME280;66426;51.454;7.266;2023-04-15T00:27:42;99329.63;;;7.17;68.51
77360;BME280;66426;51.454;7.266;2023-04-15T00:28:43;99331.25;;;7.02;69.06
77360;BME280;66426;51.454;7.266;2023-04-15T00:29:44;99329.22;;;7.07;69.20
77360;BME280;66426;51.454;7.266;2023-04-15T00:30:44;99333.63;;;7.26;68.73
77360;BME280;66426;51.454;7.266;2023-04-15T00:31:45;99336.06;;;7.13;69.12
77360;BME280;66426;51.454;7.266;2023-04-15T00:32:46;99327.75;;;7.19;69.29
77360;BME280;66426;51.454;7.266;2023-04-15T00:33:48;99332.16;;;7.20;69.29
77360;BME280;66426;51.454;7.266;2023-04-15T00:34:49;99325.75;;;7.05;69.84
77360;BME280;66426;51.454;7.266;2023-04-15T00:35:50;99333.84;;;7.04;70.10
77360;BME280;66426;51.454;7.266;2023-04-15T00:36:52;99332.59;;;7.11;69.68
77360;BME280;66426;51.454;7.266;2023-04-15T00:37:53;99331.84;;;6.90;70.82
77360;BME280;66426;51.454;7.266;2023-04-15T00:38:54;99328.91;;;6.77;71.47
77360;BME280;66426;51.454;7.266;2023-04-15T00:39:55;99324.41;;;6.97;71.38
77360;BME280;66426;51.454;7.266;2023-04-15T00:40:56;99335.63;;;6.86;71.20
77360;BME280;66426;51.454;7.266;2023-04-15T00:41:57;99338.56;;;6.99;71.16
77360;BME280;66426;51.454;7.266;2023-04-15T00:42:58;99325.47;;;6.93;71.42
77360;BME280;66426;51.454;7.266;2023-04-15T00:44:00;99327.78;;;7.00;70.86
77360;BME280;66426;51.454;7.266;2023-04-15T00:45:02;99325.06;;;6.83;70.80
77360;BME280;66426;51.454;7.266;2023-04-15T00:46:03;99333.25;;;6.80;71.60
77360;BME280;66426;51.454;7.266;2023-04-15T00:47:04;99330.34;;;6.84;71.70
77360;BME280;66426;51.454;7.266;2023-04-15T00:48:05;99332.28;;;6.81;71.83
77360;BME280;66426;51.454;7.266;2023-04-15T00:49:06;99320.44;;;6.86;71.65
77360;BME280;66426;51.454;7.266;2023-04-15T00:50:08;99324.31;;;6.98;71.23
77360;BME280;66426;51.454;7.266;2023-04-15T00:51:09;99324.66;;;7.09;70.77
77360;BME280;66426;51.454;7.266;2023-04-15T00:52:12;99325.69;;;7.07;70.92
77360;BME280;66426;51.454;7.266;2023-04-15T00:53:13;99318.78;;;7.01;70.81
77360;BME280;66426;51.454;7.266;2023-04-15T00:54:13;99316.66;;;6.90;71.25
77360;BME280;66426;51.454;7.266;2023-04-15T00:55:15;99323.78;;;7.09;70.95
77360;BME280;66426;51.454;7.266;2023-04-15T00:56:16;99326.47;;;7.09;70.85
77360;BME280;66426;51.454;7.266;2023-04-15T00:57:20;99323.22;;;7.02;71.05
77360;BME280;66426;51.454;7.266;2023-04-15T00:58:22;99324.66;;;7.09;70.90
77360;BME280;66426;51.454;7.266;2023-04-15T00:59:23;99330.22;;;7.05;70.99
77360;BME280;66426;51.454;7.266;2023-04-15T01:00:23;99326.97;;;6.98;71.11
77360;BME280;66426;51.454;7.266;2023-04-15T01:01:25;99325.81;;;7.04;71.21
77360;BME280;66426;51.454;7.266;2023-04-15T01:02:26;99323.28;;;7.01;71.21
77360;BME280;66426;51.454;7.266;2023-04-15T01:03:28;99322.09;;;6.89;71.44
77360;BME280;66426;51.454;7.266;2023-04-15T01:04:29;99326.56;;;6.88;71.52
77360;BME280;66426;51.454;7.266;2023-04-15T01:05:32;99326.28;;;6.76;71.72
77360;BME280;66426;51.454;7.266;2023-04-15T01:06:33;99331.84;;;6.90;71.41
77360;BME280;66426;51.454;7.266;2023-04-15T01:07:35;99331.00;;;6.89;71.24
77360;BME280;66426;51.454;7.266;2023-04-15T01:08:36;99327.75;;;6.83;71.50
77360;BME280;66426;51.454;7.266;2023-04-15T01:09:37;99333.09;;;6.83;71.18
77360;BME280;66426;51.454;7.266;2023-04-15T01:10:38;99326.59;;;6.69;71.87
77360;BME280;66426;51.454;7.266;2023-04-15T01:11:39;99325.44;;;6.75;72.18
77360;BME280;66426;51.454;7.266;2023-04-15T01:12:39;99323.72;;;6.74;72.32
77360;BME280;66426;51.454;7.266;2023-04-15T01:13:40;99332.41;;;6.60;72.30
77360;BME280;66426;51.454;7.266;2023-04-15T01:14:42;99321.63;;;6.62;72.42
77360;BME280;66426;51.454;7.266;2023-04-15T01:15:43;99325.00;;;6.65;72.30
77360;BME280;66426;51.454;7.266;2023-04-15T01:16:44;99318.38;;;6.74;71.87
77360;BME280;66426;51.454;7.266;2023-04-15T01:17:46;99321.31;;;6.87;71.85
77360;BME280;66426;51.454;7.266;2023-04-15T01:18:48;99328.91;;;6.77;71.96
77360;BME280;66426;51.454;7.266;2023-04-15T01:19:49;99321.81;;;6.76;72.07
77360;BME280;66426;51.454;7.266;2023-04-15T01:20:50;99323.19;;;6.85;71.67
77360;BME280;66426;51.454;7.266;2023-04-15T01:21:51;99327.09;;;6.78;72.13
77360;BME280;66426;51.454;7.266;2023-04-15T01:22:54;99328.53;;;6.85;71.64
77360;BME280;66426;51.454;7.266;2023-04-15T01:23:55;99328.47;;;6.86;71.61
77360;BME280;66426;51.454;7.266;2023-04-15T01:25:00;99331.28;;;6.83;71.74
77360;BME280;66426;51.454;7.266;2023-04-15T01:26:07;99329.19;;;6.71;72.28
77360;BME280;66426;51.454;7.266;2023-04-15T01:27:11;99327.97;;;6.78;71.70
77360;BME280;66426;51.454;7.266;2023-04-15T01:28:12;99329.72;;;6.79;71.65
77360;BME280;66426;51.454;7.266;2023-04-15T01:29:13;99328.63;;;6.64;72.73
77360;BME280;66426;51.454;7.266;2023-04-15T01:30:14;99333.19;;;6.62;72.29
77360;BME280;66426;51.454;7.266;2023-04-15T01:31:15;99322.63;;;6.59;72.93
77360;BME280;66426;51.454;7.266;2023-04-15T01:32:16;99326.50;;;6.71;72.69
77360;BME280;66426;51.454;7.266;2023-04-15T01:33:17;99319.88;;;6.61;72.60
77360;BME280;66426;51.454;7.266;2023-04-15T01:34:18;99325.75;;;6.69;72.37
77360;BME280;66426;51.454;7.266;2023-04-15T01:35:20;99323.94;;;6.69;72.17
77360;BME280;66426;51.454;7.266;2023-04-15T01:36:21;99321.09;;;6.73;72.34
77360;BME280;66426;51.454;7.266;2023-04-15T01:37:21;99322.69;;;6.77;72.05
77360;BME280;66426;51.454;7.266;2023-04-15T01:38:22;99317.47;;;6.74;72.09
77360;BME280;66426;51.454;7.266;2023-04-15T01:39:23;99320.94;;;6.76;72.10
77360;BME280;66426;51.454;7.266;2023-04-15T01:40:25;99322.34;;;6.65;72.09
77360;BME280;66426;51.454;7.266;2023-04-15T01:41:28;99320.66;;;6.63;72.36
77360;BME280;66426;51.454;7.266;2023-04-15T01:42:29;99321.63;;;6.62;72.30
77360;BME280;66426;51.454;7.266;2023-04-15T01:43:30;99323.06;;;6.69;72.17
77360;BME280;66426;51.454;7.266;2023-04-15T01:44:31;99325.88;;;6.66;72.07
77360;BME280;66426;51.454;7.266;2023-04-15T01:45:31;99330.22;;;6.50;72.65
77360;BME280;66426;51.454;7.266;2023-04-15T01:46:32;99325.91;;;6.47;72.94
77360;BME280;66426;51.454;7.266;2023-04-15T01:47:33;99325.16;;;6.62;72.46
77360;BME280;66426;51.454;7.266;2023-04-15T01:48:34;99324.41;;;6.59;72.46
77360;BME280;66426;51.454;7.266;2023-04-15T01:49:34;99319.66;;;6.65;72.20
77360;BME280;66426;51.454;7.266;2023-04-15T01:50:35;99325.59;;;6.53;72.42
77360;BME280;66426;51.454;7.266;2023-04-15T01:51:37;99327.41;;;6.53;72.44
77360;BME280;66426;51.454;7.266;2023-04-15T01:52:38;99328.69;;;6.63;72.35
77360;BME280;66426;51.454;7.266;2023-04-15T01:53:39;99336.66;;;6.64;72.11
77360;BME280;66426;51.454;7.266;2023-04-15T01:54:40;99328.91;;;6.58;72.25
77360;BME280;66426;51.454;7.266;2023-04-15T01:55:41;99330.78;;;6.56;72.25
77360;BME280;66426;51.454;7.266;2023-04-15T01:56:43;99332.91;;;6.50;72.54
77360;BME280;66426;51.454;7.266;2023-04-15T01:57:44;99322.56;;;6.42;72.67
77360;BME280;66426;51.454;7.266;2023-04-15T01:58:46;99326.81;;;6.46;72.71
77360;BME280;66426;51.454;7.266;2023-04-15T01:59:47;99332.97;;;6.48;72.74
77360;BME280;66426;51.454;7.266;2023-04-15T02:00:48;99324.03;;;6.49;72.90
77360;BME280;66426;51.454;7.266;2023-04-15T02:01:49;99324.88;;;6.50;72.70
77360;BME280;66426;51.454;7.266;2023-04-15T02:02:50;99319.81;;;6.62;72.28
77360;BME280;66426;51.454;7.266;2023-04-15T02:03:51;99316.19;;;6.63;72.45
77360;BME280;66426;51.454;7.266;2023-04-15T02:04:53;99327.47;;;6.51;72.75
77360;BME280;66426;51.454;7.266;2023-04-15T02:05:55;99319.16;;;6.57;72.57
77360;BME280;66426;51.454;7.266;2023-04-15T02:06:56;99317.84;;;6.28;73.17
77360;BME280;66426;51.454;7.266;2023-04-15T02:07:57;99326.44;;;6.16;73.92
77360;BME280;66426;51.454;7.266;2023-04-15T02:08:57;99328.91;;;6.20;73.94
77360;BME280;66426;51.454;7.266;2023-04-15T02:09:58;99322.56;;;6.23;73.71
77360;BME280;66426;51.454;7.266;2023-04-15T02:10:59;99330.22;;;6.12;74.53
77360;BME280;66426;51.454;7.266;2023-04-15T02:12:02;99325.94;;;6.08;74.53
77360;BME280;66426;51.454;7.266;2023-04-15T02:13:03;99321.38;;;6.10;74.61
77360;BME280;66426;51.454;7.266;2023-04-15T02:14:04;99325.06;;;6.26;74.02
77360;BME280;66426;51.454;7.266;2023-04-15T02:15:06;99326.47;;;6.35;73.69
77360;BME280;66426;51.454;7.266;2023-04-15T02:16:15;99323.66;;;6.38;73.73
77360;BME280;66426;51.454;7.266;2023-04-15T02:17:16;99323.50;;;6.41;73.37
77360;BME280;66426;51.454;7.266;2023-04-15T02:18:17;99329.56;;;6.25;73.69
77360;BME280;66426;51.454;7.266;2023-04-15T02:19:18;99328.31;;;6.14;74.55
77360;BME280;66426;51.454;7.266;2023-04-15T02:20:19;99331.66;;;6.38;73.76
77360;BME280;66426;51.454;7.266;2023-04-15T02:21:21;99330.44;;;6.45;73.68
77360;BME280;66426;51.454;7.266;2023-04-15T02:22:22;99335.31;;;6.37;73.49
77360;BME280;66426;51.454;7.266;2023-04-15T02:23:23;99332.84;;;6.32;73.67
77360;BME280;66426;51.454;7.266;2023-04-15T02:24:23;99348.59;;;6.38;73.62
77360;BME280;66426;51.454;7.266;2023-04-15T02:25:24;99345.44;;;6.49;73.13
77360;BME280;66426;51.454;7.266;2023-04-15T02:26:25;99344.69;;;6.45;72.96
77360;BME280;66426;51.454;7.266;2023-04-15T02:27:27;99349.53;;;6.37;73.32
77360;BME280;66426;51.454;7.266;2023-04-15T02:28:28;99345.34;;;6.32;73.54
77360;BME280;66426;51.454;7.266;2023-04-15T02:29:30;99342.72;;;6.30;73.51
77360;BME280;66426;51.454;7.266;2023-04-15T02:30:31;99344.47;;;6.31;73.45
77360;BME280;66426;51.454;7.266;2023-04-15T02:31:32;99348.72;;;6.35;73.71
77360;BME280;66426;51.454;7.266;2023-04-15T02:32:36;99346.91;;;6.36;73.33
77360;BME280;66426;51.454;7.266;2023-04-15T02:33:37;99350.69;;;6.32;73.46
77360;BME280;66426;51.454;7.266;2023-04-15T02:34:39;99347.88;;;6.35;73.53
77360;BME280;66426;51.454;7.266;2023-04-15T02:35:42;99350.75;;;6.30;73.90
77360;BME280;66426;51.454;7.266;2023-04-15T02:36:44;99345.09;;;6.36;73.78
77360;BME280;66426;51.454;7.266;2023-04-15T02:37:48;99346.63;;;6.23;74.32
77360;BME280;66426;51.454;7.266;2023-04-15T02:38:48;99348.03;;;6.11;74.88
77360;BME280;66426;51.454;7.266;2023-04-15T02:39:49;99353.94;;;5.99;75.26
77360;BME280;66426;51.454;7.266;2023-04-15T02:40:50;99348.94;;;6.12;75.42
77360;BME280;66426;51.454;7.266;2023-04-15T02:41:51;99349.50;;;6.18;74.76
77360;BME280;66426;51.454;7.266;2023-04-15T02:42:53;99350.59;;;6.14;74.87
77360;BME280;66426;51.454;7.266;2023-04-15T02:43:54;99354.13;;;6.15;74.47
77360;BME280;66426;51.454;7.266;2023-04-15T02:44:55;99352.47;;;6.12;74.59
77360;BME280;66426;51.454;7.266;2023-04-15T02:45:56;99349.00;;;6.10;74.36
77360;BME280;66426;51.454;7.266;2023-04-15T02:46:57;99360.09;;;6.01;74.77
77360;BME280;66426;51.454;7.266;2023-04-15T02:47:58;99351.81;;;6.07;74.86
77360;BME280;66426;51.454;7.266;2023-04-15T02:49:01;99349.19;;;6.05;74.76
77360;BME280;66426;51.454;7.266;2023-04-15T02:50:03;99353.13;;;6.17;74.22
77360;BME280;66426;51.454;7.266;2023-04-15T02:51:15;99353.63;;;6.07;74.53
77360;BME280;66426;51.454;7.266;2023-04-15T02:52:16;99357.16;;;6.07;74.69
77360;BME280;66426;51.454;7.266;2023-04-15T02:53:17;99363.31;;;6.09;74.60
77360;BME280;66426;51.454;7.266;2023-04-15T02:54:20;99360.41;;;6.14;74.56
77360;BME280;66426;51.454;7.266;2023-04-15T02:55:22;99361.66;;;6.25;74.38
77360;BME280;66426;51.454;7.266;2023-04-15T02:56:23;99369.97;;;6.19;74.34
77360;BME280;66426;51.454;7.266;2023-04-15T02:57:24;99360.66;;;6.28;74.02
77360;BME280;66426;51.454;7.266;2023-04-15T02:58:26;99362.47;;;6.28;73.89
77360;BME280;66426;51.454;7.266;2023-04-15T02:59:27;99364.53;;;6.21;74.09
77360;BME280;66426;51.454;7.266;2023-04-15T03:00:28;99374.22;;;6.04;74.53
77360;BME280;66426;51.454;7.266;2023-04-15T03:01:29;99362.16;;;6.15;74.62
77360;BME280;66426;51.454;7.266;2023-04-15T03:02:33;99359.19;;;6.21;74.30
77360;BME280;66426;51.454;7.266;2023-04-15T03:03:34;99368.88;;;6.23;74.03
77360;BME280;66426;51.454;7.266;2023-04-15T03:04:35;99371.53;;;6.04;74.50
77360;BME280;66426;51.454;7.266;2023-04-15T03:05:35;99377.59;;;6.08;74.49
77360;BME280;66426;51.454;7.266;2023-04-15T03:06:38;99368.38;;;6.15;74.44
77360;BME280;66426;51.454;7.266;2023-04-15T03:07:39;99369.06;;;6.00;75.17
77360;BME280;66426;51.454;7.266;2023-04-15T03:08:41;99374.72;;;5.92;75.82
77360;BME280;66426;51.454;7.266;2023-04-15T03:09:42;99369.91;;;5.80;76.18
77360;BME280;66426;51.454;7.266;2023-04-15T03:10:43;99371.25;;;5.70;76.87
77360;BME280;66426;51.454;7.266;2023-04-15T03:11:44;99370.59;;;5.65;77.24
77360;BME280;66426;51.454;7.266;2023-04-15T03:12:45;99373.25;;;5.85;76.63
77360;BME280;66426;51.454;7.266;2023-04-15T03:13:47;99369.56;;;5.88;75.90
77360;BME280;66426;51.454;7.266;2023-04-15T03:14:48;99367.25;;;5.80;75.96
77360;BME280;66426;51.454;7.266;2023-04-15T03:15:48;99372.50;;;5.81;76.04
77360;BME280;66426;51.454;7.266;2023-04-15T03:16:49;99368.72;;;5.87;75.94
77360;BME280;66426;51.454;7.266;2023-04-15T03:17:51;99376.53;;;5.92;75.59
77360;BME280;66426;51.454;7.266;2023-04-15T03:18:52;99372.91;;;5.93;75.56
77360;BME280;66426;51.454;7.266;2023-04-15T03:19:53;99373.59;;;5.98;75.40
77360;BME280;66426;51.454;7.266;2023-04-15T03:20:54;99377.91;;;6.02;75.29
77360;BME280;66426;51.454;7.266;2023-04-15T03:21:54;99365.94;;;5.89;75.96
77360;BME280;66426;51.454;7.266;2023-04-15T03:22:55;99374.63;;;5.95;75.88
77360;BME280;66426;51.454;7.266;2023-04-15T03:23:56;99386.03;;;5.99;75.41
77360;BME280;66426;51.454;7.266;2023-04-15T03:24:57;99383.59;;;5.93;75.42
77360;BME280;66426;51.454;7.266;2023-04-15T03:26:00;99384.91;;;6.04;74.98
77360;BME280;66426;51.454;7.266;2023-04-15T03:27:01;99377.69;;;6.07;75.31
77360;BME280;66426;51.454;7.266;2023-04-15T03:28:02;99383.81;;;6.09;74.98
77360;BME280;66426;51.454;7.266;2023-04-15T03:29:05;99383.28;;;6.00;75.03
77360;BME280;66426;51.454;7.266;2023-04-15T03:30:08;99382.94;;;5.88;75.21
77360;BME280;66426;51.454;7.266;2023-04-15T03:31:09;99385.47;;;5.91;75.28
77360;BME280;66426;51.454;7.266;2023-04-15T03:32:10;99381.88;;;5.92;75.67
77360;BME280;66426;51.454;7.266;2023-04-15T03:33:12;99389.97;;;5.90;75.45
77360;BME280;66426;51.454;7.266;2023-04-15T03:34:13;99381.00;;;5.71;76.21
77360;BME280;66426;51.454;7.266;2023-04-15T03:35:14;99384.88;;;5.63;76.58
77360;BME280;66426;51.454;7.266;2023-04-15T03:36:15;99383.00;;;5.66;76.36
77360;BME280;66426;51.454;7.266;2023-04-15T03:37:16;99383.66;;;5.71;76.46
77360;BME280;66426;51.454;7.266;2023-04-15T03:38:17;99386.19;;;5.74;76.44
77360;BME280;66426;51.454;7.266;2023-04-15T03:39:18;99391.53;;;5.74;75.97
77360;BME280;66426;51.454;7.266;2023-04-15T03:40:20;99389.81;;;5.73;76.53
77360;BME280;66426;51.454;7.266;2023-04-15T03:41:21;99394.16;;;5.75;75.88
77360;BME280;66426;51.454;7.266;2023-04-15T03:42:22;99388.47;;;5.42;76.91
77360;BME280;66426;51.454;7.266;2023-04-15T03:43:22;99396.38;;;5.66;76.68
77360;BME280;66426;51.454;7.266;2023-04-15T03:44:25;99389.16;;;5.68;76.22
77360;BME280;66426;51.454;7.266;2023-04-15T03:45:26;99397.03;;;5.71;76.25
77360;BME280;66426;51.454;7.266;2023-04-15T03:46:27;99396.13;;;5.72;76.03
77360;BME280;66426;51.454;7.266;2023-04-15T03:47:28;99391.63;;;5.72;76.04
77360;BME280;66426;51.454;7.266;2023-04-15T03:48:30;99394.03;;;5.78;75.76
77360;BME280;66426;51.454;7.266;2023-04-15T03:49:31;99392.31;;;5.77;75.80
77360;BME280;66426;51.454;7.266;2023-04-15T03:50:32;99391.28;;;5.80;75.88
77360;BME280;66426;51.454;7.266;2023-04-15T03:51:33;99400.13;;;5.82;75.83
77360;BME280;66426;51.454;7.266;2023-04-15T03:52:34;99396.69;;;5.58;76.53
77360;BME280;66426;51.454;7.266;2023-04-15T03:53:34;99398.31;;;5.62;76.66
77360;BME280;66426;51.454;7.266;2023-04-15T03:54:35;99395.75;;;5.59;76.73
77360;BME280;66426;51.454;7.266;2023-04-15T03:55:36;99392.22;;;5.58;76.62
77360;BME280;66426;51.454;7.266;2023-04-15T03:56:37;99402.47;;;5.69;76.41
77360;BME280;66426;51.454;7.266;2023-04-15T03:57:38;99396.03;;;5.73;76.22
77360;BME280;66426;51.454;7.266;2023-04-15T03:58:39;99406.00;;;5.70;76.29
77360;BME280;66426;51.454;7.266;2023-04-15T03:59:41;99400.47;;;5.32;77.58
77360;BME280;66426;51.454;7.266;2023-04-15T04:00:42;99400.63;;;5.49;77.32
77360;BME280;66426;51.454;7.266;2023-04-15T04:01:43;99394.75;;;5.61;77.04
77360;BME280;66426;51.454;7.266;2023-04-15T04:02:44;99399.03;;;5.66;76.93
77360;BME280;66426;51.454;7.266;2023-04-15T04:03:45;99401.56;;;5.69;76.54
77360;BME280;66426;51.454;7.266;2023-04-15T04:04:46;99407.59;;;5.74;76.43
77360;BME280;66426;51.454;7.266;2023-04-15T04:05:47;99408.84;;;5.65;76.70
77360;BME280;66426;51.454;7.266;2023-04-15T04:06:48;99412.06;;;5.73;76.47
77360;BME280;66426;51.454;7.266;2023-04-15T04:07:49;99404.66;;;5.59;76.87
77360;BME280;66426;51.454;7.266;2023-04-15T04:08:50;99407.09;;;5.64;76.61
77360;BME280;66426;51.454;7.266;2023-04-15T04:09:51;99407.81;;;5.69;76.79
77360;BME280;66426;51.454;7.266;2023-04-15T04:10:51;99408.94;;;5.41;77.61
77360;BME280;66426;51.454;7.266;2023-04-15T04:11:52;99409.31;;;5.54;77.68
77360;BME280;66426;51.454;7.266;2023-04-15T04:12:53;99412.44;;;5.64;76.94
77360;BME280;66426;51.454;7.266;2023-04-15T04:13:54;99403.84;;;5.57;76.78
77360;BME280;66426;51.454;7.266;2023-04-15T04:14:56;99406.25;;;5.63;76.83
77360;BME280;66426;51.454;7.266;2023-04-15T04:15:57;99408.72;;;5.68;76.54
77360;BME280;66426;51.454;7.266;2023-04-15T04:16:58;99408.53;;;5.73;76.31
77360;BME280;66426;51.454;7.266;2023-04-15T04:17:59;99409.06;;;5.60;76.78
77360;BME280;66426;51.454;7.266;2023-04-15T04:19:00;99403.16;;;5.52;77.06
77360;BME280;66426;51.454;7.266;2023-04-15T04:20:00;99403.75;;;5.59;76.93
77360;BME280;66426;51.454;7.266;2023-04-15T04:21:01;99411.84;;;5.57;76.81
77360;BME280;66426;51.454;7.266;2023-04-15T04:22:02;99408.94;;;5.41;77.24
77360;BME280;66426;51.454;7.266;2023-04-15T04:23:03;99408.84;;;5.45;77.23
77360;BME280;66426;51.454;7.266;2023-04-15T04:24:04;99408.66;;;5.49;76.95
77360;BME280;66426;51.454;7.266;2023-04-15T04:25:07;99413.72;;;5.55;76.88
77360;BME280;66426;51.454;7.266;2023-04-15T04:26:08;99405.72;;;5.55;76.71
77360;BME280;66426;51.454;7.266;2023-04-15T04:27:09;99415.44;;;5.56;76.64
77360;BME280;66426;51.454;7.266;2023-04-15T04:28:10;99416.06;;;5.63;76.80
77360;BME280;66426;51.454;7.266;2023-04-15T04:29:11;99410.09;;;5.56;76.75
77360;BME280;66426;51.454;7.266;2023-04-15T04:30:13;99412.31;;;5.47;77.28
77360;BME280;66426;51.454;7.266;2023-04-15T04:31:14;99417.94;;;5.39;77.38
77360;BME280;66426;51.454;7.266;2023-04-15T04:32:15;99415.66;;;5.52;76.96
77360;BME280;66426;51.454;7.266;2023-04-15T04:33:16;99416.19;;;5.60;76.47
77360;BME280;66426;51.454;7.266;2023-04-15T04:34:17;99422.72;;;5.53;76.75
77360;BME280;66426;51.454;7.266;2023-04-15T04:35:17;99418.84;;;5.39;77.02
77360;BME280;66426;51.454;7.266;2023-04-15T04:36:18;99415.19;;;5.42;77.24
77360;BME280;66426;51.454;7.266;2023-04-15T04:37:19;99422.59;;;5.56;76.96
77360;BME280;66426;51.454;7.266;2023-04-15T04:38:19;99419.78;;;5.59;76.78
77360;BME280;66426;51.454;7.266;2023-04-15T04:39:20;99422.00;;;5.49;76.87
77360;BME280;66426;51.454;7.266;2023-04-15T04:40:21;99413.41;;;5.41;77.39
77360;BME280;66426;51.454;7.266;2023-04-15T04:41:23;99411.38;;;5.48;77.08
77360;BME280;66426;51.454;7.266;2023-04-15T04:42:24;99415.66;;;5.52;76.95
77360;BME280;66426;51.454;7.266;2023-04-15T04:43:25;99419.25;;;5.51;76.83
77360;BME280;66426;51.454;7.266;2023-04-15T04:44:26;99416.13;;;5.61;76.72
77360;BME280;66426;51.454;7.266;2023-04-15T04:45:29;99420.75;;;5.58;76.45
77360;BME280;66426;51.454;7.266;2023-04-15T04:46:30;99423.22;;;5.62;76.62
77360;BME280;66426;51.454;7.266;2023-04-15T04:47:31;99428.09;;;5.73;76.18
77360;BME280;66426;51.454;7.266;2023-04-15T04:48:31;99425.28;;;5.56;76.48
77360;BME280;66426;51.454;7.266;2023-04-15T04:49:32;99432.97;;;5.41;76.81
77360;BME280;66426;51.454;7.266;2023-04-15T04:50:33;99431.69;;;5.52;77.06
77360;BME280;66426;51.454;7.266;2023-04-15T04:51:35;99428.88;;;5.55;77.00
77360;BME280;66426;51.454;7.266;2023-04-15T04:52:36;99435.97;;;5.34;77.47
77360;BME280;66426;51.454;7.266;2023-04-15T04:53:37;99431.31;;;5.39;77.90
77360;BME280;66426;51.454;7.266;2023-04-15T04:54:38;99429.41;;;5.43;77.52
77360;BME280;66426;51.454;7.266;2023-04-15T04:55:39;99432.59;;;5.51;77.18
77360;BME280;66426;51.454;7.266;2023-04-15T04:56:40;99438.59;;;5.57;76.99
77360;BME280;66426;51.454;7.266;2023-04-15T04:57:41;99444.78;;;5.58;77.26
77360;BME280;66426;51.454;7.266;2023-04-15T04:58:42;99445.06;;;5.52;77.16
77360;BME280;66426;51.454;7.266;2023-04-15T04:59:43;99446.41;;;5.62;76.82
77360;BME280;66426;51.454;7.266;2023-04-15T05:00:45;99449.44;;;5.75;76.67
77360;BME280;66426;51.454;7.266;2023-04-15T05:01:45;99450.25;;;5.77;76.42
77360;BME280;66426;51.454;7.266;2023-04-15T05:02:46;99446.63;;;5.78;76.64
77360;BME280;66426;51.454;7.266;2023-04-15T05:03:48;99448.13;;;5.63;76.79
77360;BME280;66426;51.454;7.266;2023-04-15T05:04:49;99447.13;;;5.66;76.95
77360;BME280;66426;51.454;7.266;2023-04-15T05:05:51;99452.09;;;5.75;76.70
77360;BME280;66426;51.454;7.266;2023-04-15T05:06:52;99452.47;;;5.66;76.74
77360;BME280;66426;51.454;7.266;2023-04-15T05:07:53;99448.28;;;5.60;77.12
77360;BME280;66426;51.454;7.266;2023-04-15T05:08:54;99451.25;;;5.52;77.33
77360;BME280;66426;51.454;7.266;2023-04-15T05:09:56;99442.44;;;5.50;77.59
77360;BME280;66426;51.454;7.266;2023-04-15T05:10:57;99447.09;;;5.67;77.35
77360;BME280;66426;51.454;7.266;2023-04-15T05:11:58;99446.22;;;5.67;77.22
77360;BME280;66426;51.454;7.266;2023-04-15T05:12:58;99451.25;;;5.74;76.84
77360;BME280;66426;51.454;7.266;2023-04-15T05:13:59;99445.66;;;5.79;76.48
77360;BME280;66426;51.454;7.266;2023-04-15T05:15:01;99450.94;;;5.60;76.85
77360;BME280;66426;51.454;7.266;2023-04-15T05:16:04;99450.06;;;5.59;77.30
77360;BME280;66426;51.454;7.266;2023-04-15T05:17:05;99455.53;;;5.56;77.75
77360;BME280;66426;51.454;7.266;2023-04-15T05:18:06;99460.31;;;5.70;77.18
77360;BME280;66426;51.454;7.266;2023-04-15T05:19:07;99465.84;;;5.66;77.31
77360;BME280;66426;51.454;7.266;2023-04-15T05:20:09;99462.25;;;5.67;76.97
77360;BME280;66426;51.454;7.266;2023-04-15T05:21:11;99465.50;;;5.73;77.21
77360;BME280;66426;51.454;7.266;2023-04-15T05:22:12;99475.28;;;5.74;77.16
77360;BME280;66426;51.454;7.266;2023-04-15T05:23:13;99474.63;;;5.69;77.24
77360;BME280;66426;51.454;7.266;2023-04-15T05:24:14;99469.81;;;5.77;77.12
77360;BME280;66426;51.454;7.266;2023-04-15T05:25:15;99473.66;;;5.70;77.40
77360;BME280;66426;51.454;7.266;2023-04-15T05:26:16;99470.94;;;5.72;77.26
77360;BME280;66426;51.454;7.266;2023-04-15T05:27:17;99469.59;;;5.39;78.67
77360;BME280;66426;51.454;7.266;2023-04-15T05:28:19;99481.19;;;5.38;79.12